US-1038 weather

CLOSED Conner Airport
Goffs, California, United States

Public forecast

Using degrees Fahrenheit for public forecast. Weather courtesy of forecast.io.

METAR (pilot weather report)

Closest report is Laughlin Bullhead International Airport, 32.7 nm (60.5 km) E. Retrieved 2019/03/26 09:35 UTC (9 minutes ago):

KIFP 260935Z AUTO 00000KT 10SM CLR 14/M03 A2998 RMK AO2

TAF (pilot weather forecast)

Closest forecast is Laughlin Bullhead International Airport, 32.7 nm (60.5 km) E. Retrieved 2019/03/26 06:22 UTC (3 hours ago):

TAF KIFP 260520Z 2606/2706 VRB05KT P6SM SKC FM261900 19010KT P6SM SCT250 FM270200 16008KT P6SM SCT250